North Cornwall, Pennsylvania
Current Conditions -  °F | °C
As of 5:58 PM on Thursday 18 Dec 2014 (Local Time) from KMUI Reporting Station
Overcast Overcast  
Wind Chill: 29°   Ceiling: 2800
Heat Index: 35°   Visibility: 10mi
Dew Point: 24°   Wind: 6mph
Humidity: 66%   Direction: NA
Pressure: 30.05"   Gusts: 17mph
Location:  40.2957°N, 76.4189°W
Report Text: KMUI 182258Z AUTO VRB05G15KT 10SM OVC028 01/M04 A3005 RMK AO2 SLP184 T00141044
Loading
Personal Weather Stations






























Interactive Weather Map New forecast layout! Learn more

10-Day Weather Forecast

Advertisements
Track Severe Weather on mobile